Nearby METAR Reports

 

KFNL - Ft Collins/Lovel, Colorado, USA
Distance from station: NW 10mi, 16km
Updated: Mon, 23-Apr-2018 7:56am MDT
Clear
Clear
 Wind from NNE
Wind: NNE 3 mph , 6 km/h
Temperature: 43°F , 6°C
Dew Point: 37°F , 3°C
Humidity: 81%
Barometer: 30.11 inHg , 1019.6 hPa
Clouds: Clear
Visibility: 10 miles , 16 km
2018/04/23 13:56 KFNL 231356Z AUTO 03003KT 10SM CLR 06/03 A3011 RMK AO2 SLP176 T00610033
KGXY - Greeley/Weld, Colorado, USA
Distance from station: ENE 14mi, 23km
Updated: Mon, 23-Apr-2018 7:56am MDT
Clear
Clear
 Wind from varies
Wind: varies 3 mph , 6 km/h
Temperature: 39°F , 4°C
Dew Point: 36°F , 2°C
Humidity: 87%
Barometer: 30.11 inHg , 1019.6 hPa
Clouds: Clear
Visibility: 10 miles , 16 km
2018/04/23 13:56 KGXY 231356Z AUTO VRB03KT 10SM CLR 04/02 A3011 RMK AO2 SLP198 T00440022
 
KLMO - Longmont/Vbrand, Colorado, USA
Distance from station: SW 20mi, 32km
Updated: Mon, 23-Apr-2018 8:35am MDT
Clear
Clear
 Wind from calm
Wind: Calm
Temperature: 50°F , 10°C
Dew Point: 41°F , 5°C
Humidity: 71%
Barometer: 30.11 inHg , 1019.6 hPa
Clouds: Clear
Visibility: 10 miles , 16 km
2018/04/23 14:35 KLMO 231435Z AUTO 00000KT 10SM CLR 10/05 A3011 RMK AO2 T00950050
KEIK - Erie Muni, Colorado, USA
Distance from station: SSW 25mi, 40km
Updated: Mon, 23-Apr-2018 8:41am MDT
Clear
Clear
 Wind from calm
Wind: Calm
Temperature: 45°F , 7°C
Dew Point: 39°F , 4°C
Humidity: 81%
Barometer: 30.15 inHg , 1021 hPa
Clouds: Clear
Visibility: 10 miles , 16 km
2018/04/23 14:41 KEIK 231441Z AUTO 00000KT 10SM CLR 07/04 A3015 RMK AO2 T00720042
 
KBDU - Boulder Muni, Colorado, USA
Distance from station: SW 29mi, 47km
Updated: Mon, 23-Apr-2018 8:30am MDT
Clear
Clear
 Wind from calm
Wind: Calm
Temperature: 46°F , 8°C
Dew Point: 41°F , 5°C
Humidity: 82%
Barometer: 30.09 inHg , 1019 hPa
Clouds: Clear
Visibility: 10 miles , 16 km
2018/04/23 14:30 KBDU 231430Z AUTO 00000KT 10SM CLR 08/05 A3009 RMK AO2
KBJC - Broomfield/Jeffc, Colorado, USA
Distance from station: SSW 33mi, 54km
Updated: Mon, 23-Apr-2018 8:45am MDT
Mostly cloudy
Mostly cloudy
 Wind from calm
Wind: Calm
Temperature: 50°F , 10°C
Dew Point: 39°F , 4°C
Humidity: 67%
Barometer: 30.10 inHg , 1019.3 hPa
Clouds: Mostly cloudy
Visibility: 15 miles , 24 km
Cloud details: Few Clouds 10000 ft
Partly cloudy 20000 ft
Mostly cloudy 25000 ft
2018/04/23 14:45 KBJC 231445Z 00000KT 15SM FEW100 SCT200 BKN250 10/04 A3010
 
KDEN - Denver (dia), Colorado, USA
Distance from station: SSE 37mi, 59km
Updated: Mon, 23-Apr-2018 8:53am MDT
Partly cloudy
Partly cloudy
 Wind from NW
Wind: NW 5 mph , 7 km/h
Temperature: 48°F , 9°C
Wind Chill: 46°F , 8°C
Dew Point: 39°F , 4°C
Humidity: 71%
Barometer: 30.09 inHg , 1019 hPa
Clouds: Partly cloudy
Visibility: 10 miles , 16 km
Cloud details: Partly cloudy 22000 ft
2018/04/23 14:53 KDEN 231453Z 32004KT 10SM SCT220 09/04 A3009 RMK AO2 SLP160 T00940044 50002
KFTG - Denver F. Range, Colorado, USA
Distance from station: SSE 43mi, 69km
Updated: Mon, 23-Apr-2018 8:51am MDT
Mostly cloudy
Mostly cloudy
 Wind from W
Wind: W 6 mph , 9 km/h
Temperature: 50°F , 10°C
Wind Chill: 48°F , 9°C
Dew Point: 43°F , 6°C
Humidity: 76%
Barometer: 30.10 inHg , 1019.3 hPa
Clouds: Mostly cloudy
Visibility: 10 miles , 16 km
Cloud details: Mostly cloudy 22000 ft
2018/04/23 14:51 KFTG 231451Z 27005KT 10SM BKN220 10/06 A3010
 
KBKF - Buckley Angb/Den, Colorado, USA
Distance from station: S 44mi, 71km
Updated: Mon, 23-Apr-2018 7:58am MDT
Partly cloudy
Partly cloudy
 Wind from WSW
Wind: WSW 6 mph , 9 km/h
Temperature: 48°F , 9°C
Wind Chill: 45°F , 7°C
Dew Point: 37°F , 3°C
Humidity: 66%
Barometer: 30.10 inHg , 1019.3 hPa
Clouds: Partly cloudy
Visibility: 10 miles , 16 km
Cloud details: Few Clouds 8000 ft
Few Clouds 14000 ft
Partly cloudy 22000 ft
2018/04/23 13:58 KBKF 231358Z 24005KT 10SM FEW080 FEW140 SCT220 09/03 A3010 RMK AO2A SLP158 T00900032
KCAG - Craig, Colorado, USA
Distance from station: ESE 227mi, 365km
Updated: Mon, 23-Apr-2018 8:53am MDT
Clear
Clear
 Wind from calm
Wind: Calm
Temperature: 52°F , 11°C
Dew Point: 37°F , 3°C
Humidity: 58%
Barometer: 30.09 inHg , 1019 hPa
Clouds: Clear
Visibility: 10 miles , 16 km
2018/04/23 14:53 KCAG 231453Z AUTO 00000KT 10SM CLR 11/03 A3009 RMK AO2 SLP156 T01110033 58001
 
KHDN - Hayden/Yampa, Colorado, USA
Distance from station: E 211mi, 339km
Updated: Mon, 23-Apr-2018 7:56am MDT
Few Clouds
Few Clouds
 Wind from ESE
Wind: ESE 12 mph , 19 km/h
Temperature: 43°F , 6°C
Wind Chill: 37°F , 3°C
Dew Point: 32°F , 0°C
Humidity: 66%
Barometer: 30.13 inHg , 1020.3 hPa
Clouds: Few Clouds
Visibility: 10 miles , 16 km
Cloud details: Few Clouds 10000 ft
2018/04/23 13:56 KHDN 231356Z AUTO 11010KT 10SM FEW100 06/00 A3013 RMK AO2 SLP162 T00610000
KSBS - Steamboat Spring, Colorado, USA
Distance from station: E 186mi, 299km
Updated: Mon, 23-Apr-2018 8:35am MDT
Partly cloudy
Partly cloudy
 Wind from calm
Wind: Calm
Temperature: 39°F , 4°C
Dew Point: 32°F , 0°C
Humidity: 75%
Barometer: 30.14 inHg , 1020.7 hPa
Clouds: Partly cloudy
Visibility: 10 miles , 16 km
Cloud details: Partly cloudy 9000 ft
Partly cloudy 12000 ft
2018/04/23 14:35 KSBS 231435Z AUTO 00000KT 10SM SCT090 SCT120 04/00 A3014 RMK AO1 T00371001
 
KDWX - Dixon, Wyoming, USA
Distance from station: N 278mi, 447km
Updated: Mon, 23-Apr-2018 8:35am MDT
Clear
Clear
 Wind from E
Wind: E 7 mph , 11 km/h
Temperature: 52°F , 11°C
Dew Point: 32°F , 0°C
Humidity: 47%
Barometer: 30.10 inHg , 1019.3 hPa
Clouds: Clear
Visibility: 10 miles , 16 km
2018/04/23 14:35 KDWX 231435Z AUTO 09006KT 10SM CLR 11/00 A3010 RMK AO2 T01121005
KEEO - Meeker, Colorado, USA
Distance from station: SSW 269mi, 433km
Updated: Mon, 23-Apr-2018 8:53am MDT
Clear
Clear
 Wind from calm
Wind: Calm
Temperature: 50°F , 10°C
Dew Point: 32°F , 0°C
Humidity: 50%
Barometer: 30.11 inHg , 1019.6 hPa
Clouds: Clear
Visibility: 10 miles , 16 km
2018/04/23 14:53 KEEO 231453Z AUTO 00000KT 10SM CLR 10/00 A3011 RMK AO2 SLP148 T01000000 50003